Time;durP1;ratioP1;P1;durP2;ratioP2;P2;SDS_P1;SDS_P2;PMS_P1;PMS_P2;Temp;Humidity;BMP_temperature;BMP_pressure;BME280_temperature;BME280_humidity;BME280_pressure;Samples;Min_cycle;Max_cycle;Signal;HPM_P1;HPM_P2
2022/01/22 00:00:00;;;;;;;;;;;;;;;;;;4347060;33;19949;-74
2022/01/22 00:02:25;;;;;;;;;;;;;;;;;;4347003;33;20343;-74
2022/01/22 00:04:50;;;;;;;;;;;;;;;;;;4349367;33;20274;-73
2022/01/22 00:07:15;;;;;;;;;;;;;;;;;;4347301;33;19953;-73
2022/01/22 00:09:47;;;;;;;;;;;;;;;;;;4348587;33;19989;-74
2022/01/22 00:12:23;;;;;;;;;;;;;;;;;;4347712;32;19966;-73
2022/01/22 00:14:48;;;;;;;;;;;;;;;;;;4347177;33;19983;-73
2022/01/22 00:17:13;;;;;;;;;;;;;;;;;;4346109;33;19973;-73
2022/01/22 00:19:38;;;;;;;;;;;;;;;;;;4347310;33;19969;-74
2022/01/22 00:22:04;;;;;;;;;;;;;;;;;;4346329;32;19974;-73
2022/01/22 00:24:36;;;;;;;;;;;;;;;;;;4346817;32;19942;-73
2022/01/22 00:27:01;;;;;;;;;;;;;;;;;;4348679;33;19949;-73
2022/01/22 00:29:27;;;;;;;;;;;;;;;;;;4347108;33;19939;-73
2022/01/22 00:31:52;;;;;;;;;;;;;;;;;;4333162;33;19945;-73
2022/01/22 00:34:17;;;;;;;;;;;;;;;;;;4347135;33;19985;-74
2022/01/22 00:36:42;;;;;;;;;;;;;;;;;;4333450;33;19998;-72
2022/01/22 00:39:07;;;;;;;;;;;;;;;;;;4347158;33;19957;-73
2022/01/22 00:41:32;;;;;;;;;;;;;;;;;;4346788;33;20023;-73
2022/01/22 00:43:57;;;;;;;;;;;;;;;;;;4334382;33;19957;-72
2022/01/22 00:46:22;;;;;;;;;;;;;;;;;;4333366;33;20425;-74
2022/01/22 00:48:47;;;;;;;;;;;;;;;;;;4333331;33;19996;-72
2022/01/22 00:51:13;;;;;;;;;;;;;;;;;;4333010;33;19994;-74
2022/01/22 00:53:38;;;;;;;;;;;;;;;;;;4347227;33;19953;-73
2022/01/22 00:56:03;;;;;;;;;;;;;;;;;;4346659;33;20336;-73
2022/01/22 00:58:28;;;;;;;;;;;;;;;;;;4339574;33;19998;-73
2022/01/22 01:00:53;;;;;;;;;;;;;;;;;;4318618;33;19947;-73
2022/01/22 01:03:18;;;;;;;;;;;;;;;;;;4318730;33;19943;-72
2022/01/22 01:05:43;;;;;;;;;;;;;;;;;;4332518;33;19965;-73
2022/01/22 01:08:08;;;;;;;;;;;;;;;;;;4331420;33;19967;-73
2022/01/22 01:10:33;;;;;;;;;;;;;;;;;;4319265;33;19950;-74
2022/01/22 01:12:58;;;;;;;;;;;;;;;;;;4331326;33;19994;-73
2022/01/22 01:15:44;;;;;;;;;;;;;;;;;;4333475;33;19954;-73
2022/01/22 01:34:17;;;;;;;;;;;;;;;;;;4346863;33;19942;-73
2022/01/22 01:36:42;;;;;;;;;;;;;;;;;;4346420;32;19951;-73
2022/01/22 01:39:10;;;;;;;;;;;;;;;;;;4346634;33;19987;-71
2022/01/22 01:44:01;;;;;;;;;;;;;;;;;;4346002;33;19943;-72
2022/01/22 01:46:29;;;;;;;;;;;;;;;;;;4346114;33;19972;-73
2022/01/22 01:48:54;;;;;;;;;;;;;;;;;;4346099;33;19950;-73
2022/01/22 01:51:22;;;;;;;;;;;;;;;;;;4346159;33;19959;-72
2022/01/22 01:54:06;;;;;;;;;;;;;;;;;;4345819;32;19935;-72
2022/01/22 01:59:15;;;;;;;;;;;;;;;;;;4346613;33;20304;-75
2022/01/22 02:01:41;;;;;;;;;;;;;;;;;;4345344;33;20283;-73
2022/01/22 02:04:08;;;;;;;;;;;;;;;;;;4345748;33;19952;-74
2022/01/22 02:06:33;;;;;;;;;;;;;;;;;;4345867;32;19942;-73
2022/01/22 02:08:58;;;;;;;;;;;;;;;;;;4344400;33;19939;-73
2022/01/22 02:11:26;;;;;;;;;;;;;;;;;;4345464;33;19935;-73
2022/01/22 02:24:34;;;;;;;;;;;;;;;;;;4344939;33;19977;-74
2022/01/22 02:26:59;;;;;;;;;;;;;;;;;;4333596;33;19943;-73
2022/01/22 02:29:24;;;;;;;;;;;;;;;;;;4341470;33;19943;-74
2022/01/22 02:32:16;;;;;;;;;;;;;;;;;;4332213;33;19939;-73
2022/01/22 02:34:44;;;;;;;;;;;;;;;;;;4330687;33;19934;-73
2022/01/22 02:37:14;;;;;;;;;;;;;;;;;;4331321;33;19939;-75
2022/01/22 02:42:27;;;;;;;;;;;;;;;;;;4331512;33;19978;-73
2022/01/22 02:44:53;;;;;;;;;;;;;;;;;;4332270;33;19980;-73
2022/01/22 02:47:19;;;;;;;;;;;;;;;;;;4334829;33;19939;-72
2022/01/22 02:49:44;;;;;;;;;;;;;;;;;;4335277;33;19943;-73
2022/01/22 02:52:09;;;;;;;;;;;;;;;;;;4333635;33;19935;-73
2022/01/22 02:54:34;;;;;;;;;;;;;;;;;;4328953;33;19939;-73
2022/01/22 02:57:00;;;;;;;;;;;;;;;;;;4349891;33;19970;-72
2022/01/22 02:59:25;;;;;;;;;;;;;;;;;;4339346;33;19943;-73
2022/01/22 03:01:50;;;;;;;;;;;;;;;;;;4333691;33;20321;-74
2022/01/22 03:04:15;;;;;;;;;;;;;;;;;;4333140;33;19950;-72
2022/01/22 03:06:40;;;;;;;;;;;;;;;;;;4320671;33;19952;-72
2022/01/22 03:09:11;;;;;;;;;;;;;;;;;;4334785;33;20332;-72
2022/01/22 03:11:46;;;;;;;;;;;;;;;;;;4333339;33;19935;-73
2022/01/22 03:14:49;;;;;;;;;;;;;;;;;;4335043;33;20023;-73
2022/01/22 03:22:18;;;;;;;;;;;;;;;;;;4333258;33;19946;-73
2022/01/22 03:27:29;;;;;;;;;;;;;;;;;;4349083;33;19935;-73
2022/01/22 03:29:56;;;;;;;;;;;;;;;;;;4348826;32;19942;-73
2022/01/22 03:32:21;;;;;;;;;;;;;;;;;;4347837;32;19943;-73
2022/01/22 03:35:11;;;;;;;;;;;;;;;;;;4346151;33;20356;-73
2022/01/22 03:37:36;;;;;;;;;;;;;;;;;;4348132;32;19939;-74
2022/01/22 03:40:01;;;;;;;;;;;;;;;;;;4347998;33;19935;-73
2022/01/22 03:42:26;;;;;;;;;;;;;;;;;;4348079;33;19986;-74
2022/01/22 03:44:51;;;;;;;;;;;;;;;;;;4346363;33;19980;-73
2022/01/22 03:47:16;;;;;;;;;;;;;;;;;;4348300;33;19939;-73
2022/01/22 03:49:41;;;;;;;;;;;;;;;;;;4346609;33;19972;-73
2022/01/22 03:52:07;;;;;;;;;;;;;;;;;;4348264;33;19934;-73
2022/01/22 03:54:32;;;;;;;;;;;;;;;;;;4347317;33;20005;-73
2022/01/22 03:56:57;;;;;;;;;;;;;;;;;;4346470;33;19949;-73
2022/01/22 03:59:22;;;;;;;;;;;;;;;;;;4347268;33;19943;-73
2022/01/22 04:04:31;;;;;;;;;;;;;;;;;;4347727;33;19970;-74
2022/01/22 04:09:26;;;;;;;;;;;;;;;;;;4348564;32;19982;-73
2022/01/22 04:11:52;;;;;;;;;;;;;;;;;;4347410;33;19969;-73
2022/01/22 04:14:23;;;;;;;;;;;;;;;;;;4348671;32;19939;-72
2022/01/22 04:17:20;;;;;;;;;;;;;;;;;;4346818;33;20256;-73
2022/01/22 04:25:26;;;;;;;;;;;;;;;;;;4319441;33;19950;-74
2022/01/22 04:27:53;;;;;;;;;;;;;;;;;;4347389;33;19962;-72
2022/01/22 04:30:18;;;;;;;;;;;;;;;;;;4347092;33;20297;-73
2022/01/22 04:32:44;;;;;;;;;;;;;;;;;;4347291;33;20312;-73
2022/01/22 04:35:09;;;;;;;;;;;;;;;;;;4348010;33;19939;-73
2022/01/22 04:37:34;;;;;;;;;;;;;;;;;;4347030;33;19946;-73
2022/01/22 04:39:59;;;;;;;;;;;;;;;;;;4346589;33;19938;-73
2022/01/22 04:42:25;;;;;;;;;;;;;;;;;;4347073;33;20022;-73
2022/01/22 04:45:00;;;;;;;;;;;;;;;;;;4347679;32;20039;-73
2022/01/22 04:47:36;;;;;;;;;;;;;;;;;;4347544;33;19939;-74
2022/01/22 04:55:29;;;;;;;;;;;;;;;;;;4347458;33;19955;-73
2022/01/22 04:57:54;;;;;;;;;;;;;;;;;;4346643;33;19943;-74
2022/01/22 05:00:19;;;;;;;;;;;;;;;;;;4347847;33;19972;-73
2022/01/22 05:02:45;;;;;;;;;;;;;;;;;;4346726;33;19996;-73
2022/01/22 05:05:10;;;;;;;;;;;;;;;;;;4346444;33;19943;-73
2022/01/22 05:07:35;;;;;;;;;;;;;;;;;;4345229;33;19969;-74
2022/01/22 05:10:02;;;;;;;;;;;;;;;;;;4347955;33;19949;-74
2022/01/22 05:12:27;;;;;;;;;;;;;;;;;;4344947;33;19946;-73
2022/01/22 05:14:52;;;;;;;;;;;;;;;;;;4347993;33;20324;-74
2022/01/22 05:17:18;;;;;;;;;;;;;;;;;;4347456;33;19985;-72
2022/01/22 05:22:20;;;;;;;;;;;;;;;;;;4347105;33;19931;-73
2022/01/22 05:24:50;;;;;;;;;;;;;;;;;;4345685;32;19944;-72
2022/01/22 05:31:06;;;;;;;;;;;;;;;;;;4347864;33;19997;-73
2022/01/22 05:38:02;;;;;;;;;;;;;;;;;;4332925;33;20363;-74
2022/01/22 05:40:28;;;;;;;;;;;;;;;;;;4333127;33;20294;-73
2022/01/22 05:42:53;;;;;;;;;;;;;;;;;;4330962;33;19963;-74
2022/01/22 05:45:19;;;;;;;;;;;;;;;;;;4331926;33;19945;-73
2022/01/22 05:47:45;;;;;;;;;;;;;;;;;;4334092;33;19939;-72
2022/01/22 05:50:23;;;;;;;;;;;;;;;;;;4346011;33;19957;-72
2022/01/22 05:52:56;;;;;;;;;;;;;;;;;;4346210;33;20325;-72
2022/01/22 05:55:41;;;;;;;;;;;;;;;;;;4347532;33;19998;-71
2022/01/22 06:00:52;;;;;;;;;;;;;;;;;;4347382;33;20393;-73
2022/01/22 06:03:17;;;;;;;;;;;;;;;;;;4345158;33;20313;-74
2022/01/22 06:05:42;;;;;;;;;;;;;;;;;;4333465;33;20328;-73
2022/01/22 06:08:07;;;;;;;;;;;;;;;;;;4332451;33;19951;-72
2022/01/22 06:10:34;;;;;;;;;;;;;;;;;;4345768;33;19953;-73
2022/01/22 06:13:12;;;;;;;;;;;;;;;;;;4332248;33;20236;-73
2022/01/22 06:15:37;;;;;;;;;;;;;;;;;;4345231;33;19986;-72
2022/01/22 06:18:02;;;;;;;;;;;;;;;;;;4346218;33;19934;-73
2022/01/22 06:20:27;;;;;;;;;;;;;;;;;;4346352;33;19946;-74
2022/01/22 06:22:52;;;;;;;;;;;;;;;;;;4332522;33;19938;-72
2022/01/22 06:25:18;;;;;;;;;;;;;;;;;;4346319;33;20309;-73
2022/01/22 06:27:43;;;;;;;;;;;;;;;;;;4346008;33;19935;-73
2022/01/22 06:30:08;;;;;;;;;;;;;;;;;;4347376;33;20252;-73
2022/01/22 06:32:33;;;;;;;;;;;;;;;;;;4344442;33;19939;-73
2022/01/22 06:34:58;;;;;;;;;;;;;;;;;;4345314;33;19949;-73
2022/01/22 06:37:23;;;;;;;;;;;;;;;;;;4345763;33;20343;-74
2022/01/22 06:40:03;;;;;;;;;;;;;;;;;;4345599;33;19953;-72
2022/01/22 06:42:29;;;;;;;;;;;;;;;;;;4345895;33;19939;-72
2022/01/22 06:44:54;;;;;;;;;;;;;;;;;;4345233;33;19982;-72
2022/01/22 06:47:19;;;;;;;;;;;;;;;;;;4347117;33;19935;-74
2022/01/22 06:49:45;;;;;;;;;;;;;;;;;;4346863;33;19943;-72
2022/01/22 06:52:10;;;;;;;;;;;;;;;;;;4345126;33;19936;-73
2022/01/22 06:54:35;;;;;;;;;;;;;;;;;;4345204;33;19993;-72
2022/01/22 06:57:00;;;;;;;;;;;;;;;;;;4345155;33;19955;-72
2022/01/22 06:59:25;;;;;;;;;;;;;;;;;;4347023;33;19973;-73
2022/01/22 07:01:54;;;;;;;;;;;;;;;;;;4344452;33;19994;-73
2022/01/22 07:04:19;;;;;;;;;;;;;;;;;;4346299;33;19951;-73
2022/01/22 07:06:44;;;;;;;;;;;;;;;;;;4345086;33;19935;-73
2022/01/22 07:09:09;;;;;;;;;;;;;;;;;;4342111;33;20284;-74
2022/01/22 07:11:34;;;;;;;;;;;;;;;;;;4344222;33;19935;-73
2022/01/22 07:13:59;;;;;;;;;;;;;;;;;;4344830;33;19952;-73
2022/01/22 07:16:25;;;;;;;;;;;;;;;;;;4356663;32;19985;-73
2022/01/22 07:18:54;;;;;;;;;;;;;;;;;;4344510;33;20276;-74
2022/01/22 07:21:21;;;;;;;;;;;;;;;;;;4343753;33;20291;-74
2022/01/22 07:26:11;;;;;;;;;;;;;;;;;;4344720;33;19946;-73
2022/01/22 07:28:37;;;;;;;;;;;;;;;;;;4356406;33;19951;-73
2022/01/22 07:31:03;;;;;;;;;;;;;;;;;;4355743;32;19949;-74
2022/01/22 07:33:28;;;;;;;;;;;;;;;;;;4347486;32;19943;-72
2022/01/22 07:35:53;;;;;;;;;;;;;;;;;;4357268;32;20042;-73
2022/01/22 07:38:19;;;;;;;;;;;;;;;;;;4345615;32;19990;-73
2022/01/22 07:40:44;;;;;;;;;;;;;;;;;;4358576;32;19969;-74
2022/01/22 07:43:09;;;;;;;;;;;;;;;;;;4359067;32;19946;-73
2022/01/22 07:45:34;;;;;;;;;;;;;;;;;;4347380;33;19935;-72
2022/01/22 07:47:59;;;;;;;;;;;;;;;;;;4347913;33;19934;-72
2022/01/22 07:50:24;;;;;;;;;;;;;;;;;;4347528;33;19970;-73
2022/01/22 07:52:49;;;;;;;;;;;;;;;;;;4346532;33;19934;-72
2022/01/22 07:55:16;;;;;;;;;;;;;;;;;;4346443;33;20005;-72
2022/01/22 07:57:41;;;;;;;;;;;;;;;;;;4346973;32;19939;-72
2022/01/22 08:00:06;;;;;;;;;;;;;;;;;;4359860;32;19950;-71
2022/01/22 08:02:31;;;;;;;;;;;;;;;;;;4346460;33;19938;-71
2022/01/22 08:04:56;;;;;;;;;;;;;;;;;;4346868;33;19943;-72
2022/01/22 08:07:22;;;;;;;;;;;;;;;;;;4346921;33;20344;-72
2022/01/22 08:09:47;;;;;;;;;;;;;;;;;;4347347;33;20233;-73
2022/01/22 08:12:12;;;;;;;;;;;;;;;;;;4346874;33;19993;-72
2022/01/22 08:14:37;;;;;;;;;;;;;;;;;;4346188;33;19947;-73
2022/01/22 08:17:02;;;;;;;;;;;;;;;;;;4345156;33;20313;-73
2022/01/22 08:19:27;;;;;;;;;;;;;;;;;;4345200;33;20010;-73
2022/01/22 08:21:52;;;;;;;;;;;;;;;;;;4345704;33;19943;-72
2022/01/22 08:24:20;;;;;;;;;;;;;;;;;;4346115;33;19951;-73
2022/01/22 08:26:50;;;;;;;;;;;;;;;;;;4332598;33;19953;-72
2022/01/22 08:29:15;;;;;;;;;;;;;;;;;;4335226;33;19986;-73
2022/01/22 08:31:51;;;;;;;;;;;;;;;;;;4319929;33;19947;-72
2022/01/22 08:38:32;;;;;;;15.70;4.33;;;;;;;;;;4492552;31;20085;-70
2022/01/22 08:40:57;;;;;;;;;;;;;;;;;;4477953;32;20429;-72
2022/01/22 08:43:22;;;;;;;11.95;4.57;;;;;;;;;;4457099;32;20341;-70
2022/01/22 08:45:49;;;;;;;;;;;;;;;;;;4449126;32;20055;-71
2022/01/22 08:48:15;;;;;;;14.93;4.12;;;;;;;;;;4448754;32;19940;-71
2022/01/22 08:50:40;;;;;;;;;;;;;;;;;;4448004;32;20066;-71
2022/01/22 08:53:05;;;;;;;14.48;4.22;;;;;;;;;;4451670;32;19963;-71
2022/01/22 08:55:30;;;;;;;;;;;;;;;;;;4465554;32;20018;-72
2022/01/22 08:57:55;;;;;;;11.73;4.20;;;;;;;;;;4473167;32;20378;-71
2022/01/22 09:00:21;;;;;;;11.07;4.70;;;;;;;;;;4464001;32;20142;-70
2022/01/22 09:02:46;;;;;;;;;;;;;;;;;;4462443;32;20479;-70
2022/01/22 09:05:15;;;;;;;12.48;4.25;;;;;;;;;;4466840;32;20359;-70
2022/01/22 09:07:40;;;;;;;13.57;4.95;;;;;;;;;;4474990;32;20135;-70
2022/01/22 09:10:05;;;;;;;;;;;;;;;;;;4466625;32;20070;-70
2022/01/22 09:12:30;;;;;;;13.23;4.43;;;;;;;;;;4465038;32;19947;-69
2022/01/22 09:14:56;;;;;;;;;;;;;;;;;;4463746;32;20093;-72
2022/01/22 09:17:21;;;;;;;14.30;4.44;;;;;;;;;;4462511;32;19998;-71
2022/01/22 09:19:47;;;;;;;;;;;;;;;;;;4460909;32;20037;-70
2022/01/22 09:22:12;;;;;;;10.95;4.57;;;;;;;;;;4463214;32;20292;-70
2022/01/22 09:24:37;;;;;;;;;;;;;;;;;;4451351;32;20150;-72
2022/01/22 09:27:05;;;;;;;20.23;6.37;;;;;;;;;;4452400;32;19988;-70
2022/01/22 09:29:30;;;;;;;12.52;5.68;;;;;;;;;;4461928;32;20195;-71
2022/01/22 09:31:55;;;;;;;;;;;;;;;;;;4460483;32;20327;-69
2022/01/22 09:34:20;;;;;;;13.13;4.85;;;;;;;;;;4462931;32;19971;-70
2022/01/22 09:36:46;;;;;;;;;;;;;;;;;;4461712;32;20139;-71
2022/01/22 09:39:11;;;;;;;9.13;3.28;;;;;;;;;;4477978;32;19943;-71
2022/01/22 09:41:36;;;;;;;;;;;;;;;;;;4450767;32;20037;-71
2022/01/22 09:44:02;;;;;;;10.27;4.20;;;;;;;;;;4461834;32;19941;-71
2022/01/22 09:46:27;;;;;;;;;;;;;;;;;;4448332;32;20033;-71
2022/01/22 09:48:52;;;;;;;9.55;4.05;;;;;;;;;;4455974;32;20299;-70
2022/01/22 09:51:17;;;;;;;;;;;;;;;;;;4453497;32;20026;-71
2022/01/22 09:53:43;;;;;;;10.85;4.65;;;;;;;;;;4455152;32;20317;-71
2022/01/22 09:56:08;;;;;;;;;;;;;;;;;;4469610;32;20033;-70
2022/01/22 09:58:33;;;;;;;13.98;4.95;;;;;;;;;;4456132;32;19956;-70
2022/01/22 10:00:58;;;;;;;;;;;;;;;;;;4470488;32;20146;-70
2022/01/22 10:03:24;;;;;;;9.88;4.53;;;;;;;;;;4470137;32;19998;-70
2022/01/22 10:05:49;;;;;;;;;;;;;;;;;;4454503;32;20149;-71
2022/01/22 10:08:20;;;;;;;11.82;5.78;;;;;;;;;;4464462;32;19932;-70
2022/01/22 10:10:46;;;;;;;15.68;5.55;;;;;;;;;;4451852;32;20152;-70
2022/01/22 10:13:11;;;;;;;;;;;;;;;;;;4452813;32;20274;-70
2022/01/22 10:15:39;;;;;;;11.75;5.22;;;;;;;;;;4455746;32;20297;-70
2022/01/22 10:18:05;;;;;;;16.62;5.55;;;;;;;;;;4453745;32;20024;-71
2022/01/22 10:20:30;;;;;;;;;;;;;;;;;;4463179;32;20355;-70
2022/01/22 10:22:59;;;;;;;9.32;4.65;;;;;;;;;;4453834;32;19941;-71
2022/01/22 10:25:28;;;;;;;14.10;5.12;;;;;;;;;;4467475;32;20025;-71
2022/01/22 10:27:54;;;;;;;11.38;4.72;;;;;;;;;;4454576;32;20107;-70
2022/01/22 10:30:20;;;;;;;13.80;5.75;;;;;;;;;;4453443;32;20021;-69
2022/01/22 10:32:53;;;;;;;;;;;;;;;;;;4454118;32;20669;-69
2022/01/22 10:35:23;;;;;;;13.75;5.82;;;;;;;;;;4469648;32;19946;-70
2022/01/22 10:37:55;;;;;;;13.80;5.25;;;;;;;;;;4467392;32;20033;-70
2022/01/22 10:40:21;;;;;;;14.98;5.53;;;;;;;;;;4450418;32;20073;-71
2022/01/22 10:42:46;;;;;;;;;;;;;;;;;;4467785;32;20073;-75
2022/01/22 10:45:19;;;;;;;11.65;5.47;;;;;;;;;;4466317;32;20018;-70
2022/01/22 10:47:44;;;;;;;10.73;5.20;;;;;;;;;;4463344;32;20140;-69
2022/01/22 10:50:09;;;;;;;;;;;;;;;;;;4450252;32;20319;-69
2022/01/22 10:52:53;;;;;;;10.95;6.60;;;;;;;;;;4452609;32;19936;-71
2022/01/22 10:55:19;;;;;;;20.23;6.80;;;;;;;;;;4448296;32;20323;-71
2022/01/22 10:57:44;;;;;;;;;;;;;;;;;;4461672;32;20047;-70
2022/01/22 11:00:19;;;;;;;15.20;6.57;;;;;;;;;;4459317;32;19937;-69
2022/01/22 11:02:44;;;;;;;17.90;5.55;;;;;;;;;;4463747;32;20025;-70
2022/01/22 11:05:09;;;;;;;;;;;;;;;;;;4455808;32;20037;-71
2022/01/22 11:07:34;;;;;;;16.48;6.25;;;;;;;;;;4463109;32;20029;-72
2022/01/22 11:09:59;;;;;;;;;;;;;;;;;;4454817;32;20025;-70
2022/01/22 11:12:25;;;;;;;21.32;7.52;;;;;;;;;;4467175;32;19991;-71
2022/01/22 11:14:50;;;;;;;;;;;;;;;;;;4467672;32;20066;-70
2022/01/22 11:17:15;;;;;;;14.20;7.50;;;;;;;;;;4466036;32;19973;-71
2022/01/22 11:19:40;;;;;;;;;;;;;;;;;;4467494;32;20478;-70
2022/01/22 11:22:05;;;;;;;13.80;7.75;;;;;;;;;;4454560;32;19987;-70
2022/01/22 11:24:30;;;;;;;;;;;;;;;;;;4436373;32;20057;-71
2022/01/22 11:26:58;;;;;;;19.65;8.07;;;;;;;;;;4451011;32;20338;-71
2022/01/22 11:29:25;;;;;;;19.10;8.40;;;;;;;;;;4451407;32;20034;-69
2022/01/22 11:31:51;;;;;;;8.55;6.47;;;;;;;;;;4452550;32;20025;-69
2022/01/22 11:34:19;;;;;;;12.02;8.20;;;;;;;;;;4437240;32;20057;-70
2022/01/22 11:36:54;;;;;;;10.32;7.32;;;;;;;;;;4461614;32;20055;-69
2022/01/22 11:39:21;;;;;;;16.27;7.43;;;;;;;;;;4467525;32;20055;-70
2022/01/22 11:41:58;;;;;;;18.60;7.85;;;;;;;;;;4467084;32;20053;-71
2022/01/22 11:44:39;;;;;;;12.45;7.75;;;;;;;;;;4467426;32;20026;-71
2022/01/22 11:47:15;;;;;;;19.73;7.78;;;;;;;;;;4454205;32;20055;-70
2022/01/22 11:50:00;;;;;;;19.65;8.43;;;;;;;;;;4458805;32;20021;-70
2022/01/22 11:52:29;;;;;;;22.42;8.15;;;;;;;;;;4450609;32;20034;-71
2022/01/22 11:55:01;;;;;;;20.25;7.80;;;;;;;;;;4451063;32;20448;-71
2022/01/22 11:57:30;;;;;;;16.08;7.55;;;;;;;;;;4437355;32;20482;-70
2022/01/22 12:00:15;;;;;;;17.12;8.45;;;;;;;;;;4451064;32;20029;-70
2022/01/22 12:02:40;;;;;;;17.73;8.00;;;;;;;;;;4439837;32;20032;-70
2022/01/22 12:05:07;;;;;;;;;;;;;;;;;;4453337;32;20094;-70
2022/01/22 12:07:35;;;;;;;23.45;8.35;;;;;;;;;;4451611;32;20270;-70
2022/01/22 12:10:17;;;;;;;16.15;8.38;;;;;;;;;;4452198;32;20030;-70
2022/01/22 12:15:22;;;;;;;21.40;8.77;;;;;;;;;;4452161;32;20055;-72
2022/01/22 12:17:51;;;;;;;26.80;10.02;;;;;;;;;;4436664;32;20067;-72
2022/01/22 12:23:05;;;;;;;17.92;9.07;;;;;;;;;;4467469;32;20024;-73
2022/01/22 12:25:30;;;;;;;17.67;8.75;;;;;;;;;;4466844;32;20093;-73
2022/01/22 12:27:55;;;;;;;;;;;;;;;;;;4454062;32;20402;-74
2022/01/22 12:30:32;;;;;;;16.83;9.52;;;;;;;;;;4466602;32;19942;-71
2022/01/22 12:32:59;;;;;;;18.23;9.32;;;;;;;;;;4458517;32;20048;-73
2022/01/22 12:35:38;;;;;;;20.58;9.60;;;;;;;;;;4436867;32;20037;-72
2022/01/22 12:40:57;;;;;;;22.40;12.10;;;;;;;;;;4460561;32;20033;-74
2022/01/22 12:43:34;;;;;;;21.55;11.50;;;;;;;;;;4448333;32;20017;-73
2022/01/22 12:46:01;;;;;;;20.75;10.10;;;;;;;;;;4448910;32;20078;-73
2022/01/22 12:48:31;;;;;;;23.50;11.50;;;;;;;;;;4440133;32;20350;-73
2022/01/22 12:51:01;;;;;;;21.87;10.35;;;;;;;;;;4436477;32;20071;-73
2022/01/22 12:53:26;;;;;;;17.00;10.13;;;;;;;;;;4439145;32;20116;-73
2022/01/22 12:58:22;;;;;;;23.10;15.05;;;;;;;;;;4464837;32;19984;-72
2022/01/22 13:00:48;;;;;;;28.17;13.43;;;;;;;;;;4448928;32;20413;-72
2022/01/22 13:03:13;;;;;;;;;;;;;;;;;;4440874;32;20081;-73
2022/01/22 13:05:44;;;;;;;28.33;16.02;;;;;;;;;;4466057;32;20306;-73
2022/01/22 13:08:10;;;;;;;21.80;14.77;;;;;;;;;;4466593;32;20037;-72
2022/01/22 13:10:36;;;;;;;;;;;;;;;;;;4450036;32;20430;-72
2022/01/22 13:13:02;;;;;;;24.45;16.50;;;;;;;;;;4448957;32;19939;-72
2022/01/22 13:15:27;;;;;;;;;;;;;;;;;;4455313;32;20054;-72
2022/01/22 13:18:00;;;;;;;26.33;16.42;;;;;;;;;;4465492;32;20000;-72
2022/01/22 13:20:27;;;;;;;28.23;16.75;;;;;;;;;;4465737;32;20438;-72
2022/01/22 13:22:53;;;;;;;32.30;17.75;;;;;;;;;;4466155;32;20398;-72
2022/01/22 13:25:19;;;;;;;28.77;15.65;;;;;;;;;;4467109;32;20414;-72
2022/01/22 13:27:44;;;;;;;;;;;;;;;;;;4467480;32;20050;-72
2022/01/22 13:30:11;;;;;;;26.48;16.77;;;;;;;;;;4453209;32;20283;-72
2022/01/22 13:35:52;;;;;;;24.50;16.87;;;;;;;;;;4457632;32;20108;-71
2022/01/22 13:48:58;;;;;;;28.15;17.17;;;;;;;;;;4467883;32;20466;-71
2022/01/22 13:51:24;;;;;;;26.05;16.33;;;;;;;;;;4469094;32;20020;-72
2022/01/22 13:53:49;;;;;;;21.48;14.68;;;;;;;;;;4461636;32;20059;-70
2022/01/22 13:56:16;;;;;;;;;;;;;;;;;;4438862;32;20056;-71
2022/01/22 13:58:42;;;;;;;27.20;16.57;;;;;;;;;;4453929;32;19937;-70
2022/01/22 14:01:07;;;;;;;;;;;;;;;;;;4452193;32;20118;-71
2022/01/22 14:03:39;;;;;;;23.02;16.58;;;;;;;;;;4452406;32;19928;-72
2022/01/22 14:06:06;;;;;;;34.70;18.40;;;;;;;;;;4453924;32;20049;-71
2022/01/22 14:08:33;;;;;;;;;;;;;;;;;;4438466;32;20022;-71
2022/01/22 14:11:13;;;;;;;33.38;20.95;;;;;;;;;;4453398;32;19933;-71
2022/01/22 14:13:39;;;;;;;31.87;21.35;;;;;;;;;;4458685;32;20028;-72
2022/01/22 14:16:04;;;;;;;;;;;;;;;;;;4469580;32;20056;-69
2022/01/22 14:18:38;;;;;;;33.60;21.80;;;;;;;;;;4467800;32;19968;-70
2022/01/22 14:21:06;;;;;;;35.30;20.35;;;;;;;;;;4468140;32;20055;-70
2022/01/22 14:23:32;;;;;;;33.42;21.37;;;;;;;;;;4469485;32;20025;-72
2022/01/22 14:25:57;;;;;;;;;;;;;;;;;;4467811;32;20025;-70
2022/01/22 14:28:24;;;;;;;36.55;21.95;;;;;;;;;;4447256;32;19984;-71
2022/01/22 14:30:49;;;;;;;39.85;21.98;;;;;;;;;;4452719;32;20098;-71
2022/01/22 14:33:14;;;;;;;;;;;;;;;;;;4453695;32;20462;-71
2022/01/22 14:35:40;;;;;;;32.05;22.50;;;;;;;;;;4452032;32;19933;-71
2022/01/22 14:38:06;;;;;;;;;;;;;;;;;;4445144;32;20306;-70
2022/01/22 14:46:02;;;;;;;39.00;23.23;;;;;;;;;;4451459;32;20460;-70
2022/01/22 14:48:27;;;;;;;36.40;23.95;;;;;;;;;;4437605;32;20030;-71
2022/01/22 14:50:52;;;;;;;;;;;;;;;;;;4452406;32;20383;-70
2022/01/22 14:53:17;;;;;;;41.53;23.65;;;;;;;;;;4436762;32;19951;-70
2022/01/22 14:55:42;;;;;;;;;;;;;;;;;;4438825;32;20403;-69
2022/01/22 14:58:08;;;;;;;36.78;23.40;;;;;;;;;;4453497;32;19940;-70
2022/01/22 15:00:33;;;;;;;;;;;;;;;;;;4451839;32;20022;-70
2022/01/22 15:02:58;;;;;;;36.58;23.23;;;;;;;;;;4457699;32;19932;-71
2022/01/22 15:05:23;;;;;;;;;;;;;;;;;;4467017;32;20028;-70
2022/01/22 15:07:49;;;;;;;38.10;23.05;;;;;;;;;;4452621;32;20406;-70
2022/01/22 15:10:17;;;;;;;36.75;23.90;;;;;;;;;;4438731;32;20125;-70
2022/01/22 15:12:42;;;;;;;40.10;24.58;;;;;;;;;;4453432;32;20033;-71
2022/01/22 15:15:07;;;;;;;;;;;;;;;;;;4437082;32;20080;-70
2022/01/22 15:17:53;;;;;;;33.20;23.70;;;;;;;;;;4463657;32;19940;-71
2022/01/22 15:20:24;;;;;;;41.20;26.57;;;;;;;;;;4467811;32;20013;-70
2022/01/22 15:22:49;;;;;;;35.85;23.67;;;;;;;;;;4466600;32;20047;-70
2022/01/22 15:25:15;;;;;;;;;;;;;;;;;;4464909;32;20033;-71
2022/01/22 15:27:40;;;;;;;33.00;22.77;;;;;;;;;;4452111;32;19937;-71
2022/01/22 15:30:12;;;;;;;;;;;;;;;;;;4466966;32;20155;-70
2022/01/22 15:32:56;;;;;;;36.88;22.55;;;;;;;;;;4458870;32;20282;-69
2022/01/22 15:35:21;;;;;;;41.10;24.42;;;;;;;;;;4451269;32;20057;-69
2022/01/22 15:37:50;;;;;;;;;;;;;;;;;;4450300;32;20101;-69
2022/01/22 15:40:15;;;;;;;37.38;22.80;;;;;;;;;;4452860;32;20449;-70
2022/01/22 15:42:40;;;;;;;;;;;;;;;;;;4467225;32;20033;-71
2022/01/22 15:45:06;;;;;;;39.88;22.13;;;;;;;;;;4466091;32;19968;-70
2022/01/22 15:47:31;;;;;;;;;;;;;;;;;;4465963;32;20033;-70
2022/01/22 15:49:58;;;;;;;36.50;24.02;;;;;;;;;;4467015;32;19964;-70
2022/01/22 15:52:23;;;;;;;42.28;28.08;;;;;;;;;;4452133;32;20082;-69
2022/01/22 15:54:49;;;;;;;;;;;;;;;;;;4467434;32;20398;-70
2022/01/22 15:57:15;;;;;;;41.15;24.08;;;;;;;;;;4450241;32;19936;-69
2022/01/22 15:59:41;;;;;;;42.05;25.70;;;;;;;;;;4443758;32;20071;-70
2022/01/22 16:02:06;;;;;;;;;;;;;;;;;;4448217;32;20460;-69
2022/01/22 16:04:33;;;;;;;38.85;24.42;;;;;;;;;;4437314;32;20309;-70
2022/01/22 16:07:02;;;;;;;40.72;24.45;;;;;;;;;;4461762;32;20029;-70
2022/01/22 16:09:29;;;;;;;33.90;23.05;;;;;;;;;;4466806;32;20025;-69
2022/01/22 16:11:54;;;;;;;41.42;23.55;;;;;;;;;;4452371;32;20025;-70
2022/01/22 16:14:19;;;;;;;;;;;;;;;;;;4453572;32;20081;-70
2022/01/22 16:16:45;;;;;;;43.13;23.60;;;;;;;;;;4466516;32;19936;-70
2022/01/22 16:19:10;;;;;;;;;;;;;;;;;;4466673;32;20174;-69
2022/01/22 16:21:37;;;;;;;41.22;25.60;;;;;;;;;;4466123;32;19971;-70
2022/01/22 16:24:02;;;;;;;41.13;24.45;;;;;;;;;;4459302;32;20030;-69
2022/01/22 16:26:27;;;;;;;;;;;;;;;;;;4437952;32;20448;-69
2022/01/22 16:28:52;;;;;;;39.47;23.25;;;;;;;;;;4451262;32;19980;-70
2022/01/22 16:31:18;;;;;;;;;;;;;;;;;;4450014;32;20037;-70
2022/01/22 16:33:44;;;;;;;38.25;23.80;;;;;;;;;;4451866;32;20370;-70
2022/01/22 16:36:09;;;;;;;39.08;25.30;;;;;;;;;;4455297;32;20112;-70
2022/01/22 16:38:34;;;;;;;;;;;;;;;;;;4459593;32;20124;-70
2022/01/22 16:41:00;;;;;;;42.97;23.58;;;;;;;;;;4450555;32;19944;-69
2022/01/22 16:43:30;;;;;;;;;;;;;;;;;;4456237;32;20116;-69
2022/01/22 16:46:22;;;;;;;32.58;21.90;;;;;;;;;;4467880;32;19947;-70
2022/01/22 16:51:41;;;;;;;45.85;24.23;;;;;;;;;;4466730;32;20071;-69
2022/01/22 16:57:03;;;;;;;43.03;25.27;;;;;;;;;;4450622;32;20134;-70
2022/01/22 16:59:28;;;;;;;37.95;23.83;;;;;;;;;;4452765;32;20030;-69
2022/01/22 17:01:56;;;;;;;;;;;;;;;;;;4452002;32;20362;-70
2022/01/22 17:04:26;;;;;;;44.38;24.90;;;;;;;;;;4452185;32;20253;-69
2022/01/22 17:06:52;;;;;;;39.22;23.67;;;;;;;;;;4455237;32;20022;-69
2022/01/22 17:14:34;;;;;;;40.08;24.33;;;;;;;;;;4470752;32;20048;-70
2022/01/22 17:16:59;;;;;;;;;;;;;;;;;;4471002;32;20107;-69
2022/01/22 17:19:27;;;;;;;37.58;24.27;;;;;;;;;;4471217;32;19940;-70
2022/01/22 17:21:52;;;;;;;41.92;27.45;;;;;;;;;;4470522;32;20034;-70
2022/01/22 17:24:17;;;;;;;;;;;;;;;;;;4456514;32;20330;-69
2022/01/22 17:26:42;;;;;;;37.20;26.77;;;;;;;;;;4463769;32;19946;-70
2022/01/22 17:29:08;;;;;;;;;;;;;;;;;;4463500;32;20445;-70
2022/01/22 17:31:33;;;;;;;48.20;28.23;;;;;;;;;;4462008;32;19937;-70
2022/01/22 17:34:01;;;;;;;;;;;;;;;;;;4469891;32;20346;-70
2022/01/22 17:36:26;;;;;;;42.78;26.50;;;;;;;;;;4446451;32;19964;-70
2022/01/22 17:38:51;;;;;;;;;;;;;;;;;;4466070;32;20060;-70
2022/01/22 17:41:16;;;;;;;53.40;28.85;;;;;;;;;;4463940;32;20317;-70
2022/01/22 17:43:43;;;;;;;;;;;;;;;;;;4469186;32;20029;-70
2022/01/22 17:46:09;;;;;;;50.10;30.02;;;;;;;;;;4454169;32;19992;-69
2022/01/22 17:48:34;;;;;;;;;;;;;;;;;;4449755;32;20033;-70